createdAt,value
2019-02-09T00:00:35.874Z,7.94
2019-02-09T00:01:35.847Z,7.93
2019-02-09T00:02:35.826Z,7.94
2019-02-09T00:03:35.867Z,7.93
2019-02-09T00:04:35.801Z,7.98
2019-02-09T00:05:35.790Z,7.97
2019-02-09T00:06:35.780Z,7.90
2019-02-09T00:07:35.778Z,7.93
2019-02-09T00:08:36.478Z,7.93
2019-02-09T00:09:35.748Z,7.90
2019-02-09T00:10:35.741Z,7.94
2019-02-09T00:11:35.726Z,7.91
2019-02-09T00:12:35.732Z,7.94
2019-02-09T00:13:35.733Z,7.95
2019-02-09T00:14:35.785Z,7.95
2019-02-09T00:15:35.706Z,7.88
2019-02-09T00:16:35.693Z,7.94
2019-02-09T00:17:35.675Z,7.94
2019-02-09T00:18:35.685Z,7.91
2019-02-09T00:19:35.722Z,7.95
2019-02-09T00:20:35.645Z,7.95
2019-02-09T00:21:35.649Z,7.95
2019-02-09T00:22:35.640Z,7.93
2019-02-09T00:23:35.639Z,7.97
2019-02-09T00:24:35.662Z,7.94
2019-02-09T00:25:35.675Z,8.09
2019-02-09T00:26:35.579Z,8.08
2019-02-09T00:27:35.635Z,8.05
2019-02-09T00:28:35.580Z,8.08
2019-02-09T00:29:35.572Z,8.01
2019-02-09T00:30:35.524Z,8.06
2019-02-09T00:31:35.590Z,8.06
2019-02-09T00:32:35.549Z,8.10
2019-02-09T00:33:35.557Z,8.12
2019-02-09T00:34:35.500Z,8.05
2019-02-09T00:35:35.559Z,8.09
2019-02-09T00:36:35.460Z,8.06
2019-02-09T00:37:35.471Z,8.06
2019-02-09T00:38:35.456Z,8.08
2019-02-09T00:39:35.442Z,8.06
2019-02-09T00:40:35.597Z,8.10
2019-02-09T00:41:35.504Z,8.03
2019-02-09T00:42:35.452Z,8.06
2019-02-09T00:43:35.527Z,8.06
2019-02-09T00:44:35.352Z,8.01
2019-02-09T00:45:35.369Z,8.06
2019-02-09T00:46:35.393Z,8.00
2019-02-09T00:47:42.595Z,8.01
2019-02-09T00:48:36.020Z,8.08
2019-02-09T00:49:35.306Z,8.06
2019-02-09T00:50:35.301Z,8.09
2019-02-09T00:51:35.407Z,8.08
2019-02-09T00:52:35.387Z,8.10
2019-02-09T00:53:36.019Z,8.10
2019-02-09T00:54:35.282Z,8.08
2019-02-09T00:55:35.250Z,8.09
2019-02-09T00:56:35.237Z,8.16
2019-02-09T00:57:35.254Z,8.13
2019-02-09T00:58:35.210Z,8.06
2019-02-09T00:59:35.258Z,8.12
2019-02-09T01:00:35.170Z,8.09
2019-02-09T01:01:35.152Z,8.13
2019-02-09T01:02:35.149Z,8.10
2019-02-09T01:03:35.161Z,8.10
2019-02-09T01:04:35.366Z,8.12
2019-02-09T01:05:35.118Z,8.12
2019-02-09T01:06:35.100Z,8.09
2019-02-09T01:07:35.196Z,8.05
2019-02-09T01:08:35.089Z,8.03
2019-02-09T01:09:35.079Z,8.03
2019-02-09T01:10:35.257Z,8.01
2019-02-09T01:11:35.069Z,8.05
2019-02-09T01:12:35.039Z,8.01
2019-02-09T01:13:35.054Z,8.08
2019-02-09T01:14:35.045Z,8.05
2019-02-09T01:15:35.027Z,8.09
2019-02-09T01:16:35.078Z,8.10
2019-02-09T01:17:34.998Z,8.06
2019-02-09T01:18:34.980Z,8.10
2019-02-09T01:19:34.988Z,8.06
2019-02-09T01:20:34.970Z,8.06
2019-02-09T01:21:35.022Z,8.06
2019-02-09T01:22:34.956Z,8.08
2019-02-09T01:23:35.113Z,8.03
2019-02-09T01:24:34.923Z,8.08
2019-02-09T01:25:34.921Z,7.98
2019-02-09T01:26:34.975Z,7.94
2019-02-09T01:27:34.846Z,8.05
2019-02-09T01:28:34.905Z,7.94
2019-02-09T01:29:34.828Z,7.94
2019-02-09T01:30:34.813Z,8.05
2019-02-09T01:31:34.805Z,7.93
2019-02-09T01:32:34.794Z,7.94
2019-02-09T01:33:34.805Z,7.95
2019-02-09T01:34:35.530Z,7.80
2019-02-09T01:35:34.807Z,7.80
2019-02-09T01:36:34.787Z,7.79
2019-02-09T01:37:34.778Z,7.82
2019-02-09T01:38:34.787Z,7.77
2019-02-09T01:39:34.859Z,7.83
2019-02-09T01:40:34.766Z,7.83
2019-02-09T01:41:34.719Z,7.79
2019-02-09T01:42:34.709Z,7.85
2019-02-09T01:43:34.692Z,7.79
2019-02-09T01:44:34.821Z,7.77
2019-02-09T01:45:34.679Z,7.77
2019-02-09T01:46:34.684Z,7.77
2019-02-09T01:47:35.530Z,7.73
2019-02-09T01:48:34.651Z,7.77
2019-02-09T01:49:34.637Z,7.77
2019-02-09T01:50:34.676Z,7.77
2019-02-09T01:51:34.634Z,7.80
2019-02-09T01:52:34.649Z,7.87
2019-02-09T01:53:34.577Z,7.82
2019-02-09T01:54:34.618Z,7.91
2019-02-09T01:55:34.645Z,7.90
2019-02-09T01:56:34.560Z,7.91
2019-02-09T01:57:34.612Z,7.93
2019-02-09T01:58:34.521Z,7.82
2019-02-09T01:59:34.564Z,7.83
2019-02-09T02:00:35.531Z,7.90
2019-02-09T02:01:34.522Z,7.93
2019-02-09T02:02:34.531Z,7.93
2019-02-09T02:03:34.518Z,7.91
2019-02-09T02:04:34.480Z,7.91
2019-02-09T02:05:34.465Z,7.91
2019-02-09T02:06:34.478Z,7.91
2019-02-09T02:07:34.410Z,7.82
2019-02-09T02:08:34.431Z,7.93
2019-02-09T02:09:34.516Z,7.90
2019-02-09T02:10:34.393Z,7.91
2019-02-09T02:11:34.477Z,7.82
2019-02-09T02:12:34.374Z,7.95
2019-02-09T02:13:34.381Z,7.93
2019-02-09T02:14:34.354Z,7.98
2019-02-09T02:15:34.404Z,7.95
2019-02-09T02:16:34.343Z,7.88
2019-02-09T02:17:34.309Z,7.93
2019-02-09T02:18:34.310Z,7.98
2019-02-09T02:19:35.034Z,7.98
2019-02-09T02:20:34.318Z,7.80
2019-02-09T02:21:34.279Z,7.90
2019-02-09T02:22:34.242Z,7.94
2019-02-09T02:23:34.239Z,7.97
2019-02-09T02:24:34.487Z,7.95
2019-02-09T02:25:34.215Z,7.91
2019-02-09T02:26:34.208Z,7.93
2019-02-09T02:27:34.257Z,7.91
2019-02-09T02:28:34.270Z,7.94
2019-02-09T02:29:34.170Z,8.06
2019-02-09T02:30:34.176Z,7.95
2019-02-09T02:31:34.283Z,7.93
2019-02-09T02:32:34.150Z,8.01
2019-02-09T02:33:34.157Z,8.13
2019-02-09T02:34:34.138Z,8.10
2019-02-09T02:35:34.176Z,8.18
2019-02-09T02:36:34.115Z,8.12
2019-02-09T02:37:34.108Z,8.20
2019-02-09T02:38:34.072Z,8.13
2019-02-09T02:39:34.137Z,8.23
2019-02-09T02:40:34.059Z,8.26
2019-02-09T02:41:34.047Z,8.28
2019-02-09T02:42:34.022Z,8.31
2019-02-09T02:43:34.228Z,8.27
2019-02-09T02:44:34.114Z,8.28
2019-02-09T02:45:34.018Z,8.31
2019-02-09T02:46:34.033Z,8.26
2019-02-09T02:47:33.980Z,8.36
2019-02-09T02:48:33.969Z,8.34
2019-02-09T02:49:33.966Z,8.44
2019-02-09T02:50:34.031Z,8.30
2019-02-09T02:51:33.981Z,8.37
2019-02-09T02:52:33.947Z,8.41
2019-02-09T02:53:33.933Z,8.33
2019-02-09T02:54:33.938Z,8.42
2019-02-09T02:55:33.885Z,8.28
2019-02-09T02:56:33.918Z,8.41
2019-02-09T02:57:33.913Z,8.28
2019-02-09T02:58:33.855Z,8.31
2019-02-09T02:59:33.885Z,8.31
2019-02-09T03:00:33.876Z,8.44
2019-02-09T03:01:33.837Z,8.36
2019-02-09T03:02:33.943Z,8.42
2019-02-09T03:03:33.801Z,8.41
2019-02-09T03:04:33.783Z,8.38
2019-02-09T03:05:33.792Z,8.34
2019-02-09T03:06:33.886Z,8.36
2019-02-09T03:07:33.757Z,8.31
2019-02-09T03:08:33.740Z,8.34
2019-02-09T03:09:33.757Z,8.42
2019-02-09T03:10:33.724Z,8.44
2019-02-09T03:11:33.806Z,8.45
2019-02-09T03:12:33.825Z,8.34
2019-02-09T03:13:33.688Z,8.42
2019-02-09T03:14:33.681Z,8.33
2019-02-09T03:15:33.680Z,8.33
2019-02-09T03:16:33.657Z,8.34
2019-02-09T03:17:33.754Z,8.23
2019-02-09T03:18:33.699Z,8.27
2019-02-09T03:19:33.619Z,8.31
2019-02-09T03:20:33.616Z,8.30
2019-02-09T03:21:33.605Z,8.30
2019-02-09T03:22:33.584Z,8.28
2019-02-09T03:23:33.675Z,8.33
2019-02-09T03:24:33.669Z,8.33
2019-02-09T03:25:33.617Z,8.37
2019-02-09T03:26:33.616Z,8.46
2019-02-09T03:27:33.534Z,8.44
2019-02-09T03:28:33.549Z,8.44
2019-02-09T03:29:33.519Z,8.41
2019-02-09T03:30:46.605Z,8.38
2019-02-09T03:31:34.577Z,8.36
2019-02-09T03:32:33.504Z,8.46
2019-02-09T03:33:33.490Z,8.37
2019-02-09T03:34:33.438Z,8.48
2019-02-09T03:35:33.580Z,8.42
2019-02-09T03:36:33.443Z,8.36
2019-02-09T03:37:33.479Z,8.36
2019-02-09T03:38:33.402Z,8.37
2019-02-09T03:39:33.596Z,8.48
2019-02-09T03:40:33.405Z,8.52
2019-02-09T03:41:33.417Z,8.38
2019-02-09T03:42:33.443Z,8.42
2019-02-09T03:43:33.363Z,8.49
2019-02-09T03:44:33.340Z,8.51
2019-02-09T03:45:33.328Z,8.55
2019-02-09T03:46:33.322Z,8.49
2019-02-09T03:47:33.416Z,8.51
2019-02-09T03:48:33.352Z,8.45
2019-02-09T03:49:33.303Z,8.38
2019-02-09T03:50:33.356Z,8.33
2019-02-09T03:51:33.286Z,8.53
2019-02-09T03:52:33.317Z,8.41
2019-02-09T03:53:33.252Z,8.45
2019-02-09T03:54:33.230Z,8.37
2019-02-09T03:55:33.360Z,8.44
2019-02-09T03:56:33.221Z,8.37
2019-02-09T03:57:33.199Z,8.38
2019-02-09T03:58:33.344Z,8.41
2019-02-09T03:59:33.178Z,8.37
2019-02-09T04:00:33.176Z,8.49
2019-02-09T04:01:33.163Z,8.49
2019-02-09T04:02:33.157Z,8.41
2019-02-09T04:03:33.276Z,8.34
2019-02-09T04:04:33.120Z,8.36
2019-02-09T04:05:33.206Z,8.37
2019-02-09T04:06:33.119Z,8.44
2019-02-09T04:07:33.100Z,8.45
2019-02-09T04:08:33.084Z,8.42
2019-02-09T04:09:33.073Z,8.46
2019-02-09T04:10:33.092Z,8.45
2019-02-09T04:11:33.049Z,8.53
2019-02-09T04:12:33.035Z,8.36
2019-02-09T04:13:33.035Z,8.38
2019-02-09T04:14:33.011Z,8.44
2019-02-09T04:15:33.008Z,8.41
2019-02-09T04:16:33.035Z,8.42
2019-02-09T04:17:32.976Z,8.38
2019-02-09T04:18:32.973Z,8.42
2019-02-09T04:19:33.564Z,8.37
2019-02-09T04:20:32.954Z,8.37
2019-02-09T04:21:32.958Z,8.38
2019-02-09T04:22:33.048Z,8.41
2019-02-09T04:23:32.935Z,8.37
2019-02-09T04:24:32.909Z,8.36
2019-02-09T04:25:32.900Z,8.45
2019-02-09T04:26:32.987Z,8.31
2019-02-09T04:27:32.943Z,8.34
2019-02-09T04:28:32.856Z,8.28
2019-02-09T04:29:32.851Z,8.28
2019-02-09T04:30:32.840Z,8.24
2019-02-09T04:31:32.836Z,8.30
2019-02-09T04:32:32.879Z,8.30
2019-02-09T04:33:32.791Z,8.27
2019-02-09T04:34:32.869Z,8.28
2019-02-09T04:35:33.561Z,8.30
2019-02-09T04:36:32.766Z,8.28
2019-02-09T04:37:32.771Z,8.31
2019-02-09T04:38:32.890Z,8.28
2019-02-09T04:39:32.750Z,8.30
2019-02-09T04:40:32.784Z,8.28
2019-02-09T04:41:32.747Z,8.28
2019-02-09T04:42:32.742Z,8.31
2019-02-09T04:43:32.719Z,8.28
2019-02-09T04:44:32.719Z,8.28
2019-02-09T04:45:32.723Z,8.38
2019-02-09T04:46:32.647Z,8.38
2019-02-09T04:47:32.712Z,8.38
2019-02-09T04:48:32.645Z,8.38
2019-02-09T04:49:32.629Z,8.28
2019-02-09T04:50:32.659Z,8.33
2019-02-09T04:51:32.605Z,8.28
2019-02-09T04:52:32.611Z,8.42
2019-02-09T04:53:32.701Z,8.38
2019-02-09T04:54:32.585Z,8.33
2019-02-09T04:55:32.551Z,8.31
2019-02-09T04:56:32.590Z,8.33
2019-02-09T04:57:32.536Z,8.24
2019-02-09T04:58:32.600Z,8.37
2019-02-09T04:59:32.612Z,8.28
2019-02-09T05:00:32.491Z,8.28
2019-02-09T05:01:32.526Z,8.26
2019-02-09T05:02:32.542Z,8.30
2019-02-09T05:03:32.481Z,8.24
2019-02-09T05:04:32.559Z,8.26
2019-02-09T05:05:32.540Z,8.27
2019-02-09T05:06:32.435Z,8.23
2019-02-09T05:07:32.441Z,8.20
2019-02-09T05:08:32.418Z,8.20
2019-02-09T05:09:32.442Z,8.20
2019-02-09T05:10:32.471Z,8.19
2019-02-09T05:11:32.399Z,8.19
2019-02-09T05:12:32.403Z,8.19
2019-02-09T05:13:32.351Z,8.13
2019-02-09T05:14:32.373Z,8.10
2019-02-09T05:15:32.377Z,8.12
2019-02-09T05:16:32.363Z,8.15
2019-02-09T05:17:32.374Z,8.19
2019-02-09T05:18:32.402Z,8.16
2019-02-09T05:19:32.315Z,8.12
2019-02-09T05:20:32.306Z,8.23
2019-02-09T05:21:32.264Z,8.23
2019-02-09T05:22:32.255Z,8.20
2019-02-09T05:23:32.257Z,8.19
2019-02-09T05:24:32.326Z,8.23
2019-02-09T05:25:32.245Z,8.19
2019-02-09T05:26:32.203Z,8.20
2019-02-09T05:27:32.201Z,8.26
2019-02-09T05:28:32.216Z,8.24
2019-02-09T05:29:32.193Z,8.18
2019-02-09T05:30:32.216Z,8.19
2019-02-09T05:31:32.153Z,8.26
2019-02-09T05:32:32.150Z,8.26
2019-02-09T05:33:32.142Z,8.20
2019-02-09T05:34:32.294Z,8.16
2019-02-09T05:35:32.169Z,8.19
2019-02-09T05:36:32.162Z,8.30
2019-02-09T05:37:32.098Z,8.24
2019-02-09T05:38:32.068Z,8.24
2019-02-09T05:39:33.823Z,8.31
2019-02-09T05:40:32.147Z,8.28
2019-02-09T05:41:32.585Z,8.31
2019-02-09T05:42:32.203Z,8.33
2019-02-09T05:43:32.034Z,8.45
2019-02-09T05:44:32.025Z,8.45
2019-02-09T05:45:32.072Z,8.44
2019-02-09T05:46:31.984Z,8.41
2019-02-09T05:47:31.977Z,8.30
2019-02-09T05:48:31.998Z,8.41
2019-02-09T05:49:31.976Z,8.28
2019-02-09T05:50:31.937Z,8.33
2019-02-09T05:51:32.031Z,8.30
2019-02-09T05:52:32.016Z,8.33
2019-02-09T05:53:31.912Z,8.24
2019-02-09T05:54:31.907Z,8.23
2019-02-09T05:55:31.881Z,8.26
2019-02-09T05:56:31.867Z,8.20
2019-02-09T05:57:32.574Z,8.26
2019-02-09T05:58:31.938Z,8.23
2019-02-09T05:59:31.877Z,8.23
2019-02-09T06:00:31.825Z,8.23
2019-02-09T06:01:32.703Z,8.19
2019-02-09T06:02:31.806Z,8.20
2019-02-09T06:03:31.852Z,8.20
2019-02-09T06:04:31.801Z,8.26
2019-02-09T06:05:31.776Z,8.26
2019-02-09T06:06:31.775Z,8.28
2019-02-09T06:07:31.748Z,8.30
2019-02-09T06:08:31.820Z,8.46
2019-02-09T06:09:31.749Z,8.61
2019-02-09T06:10:31.709Z,8.66
2019-02-09T06:11:31.709Z,8.70
2019-02-09T06:12:31.698Z,8.60
2019-02-09T06:13:31.684Z,8.63
2019-02-09T06:14:31.877Z,8.51
2019-02-09T06:15:31.660Z,8.46
2019-02-09T06:16:31.669Z,8.51
2019-02-09T06:17:31.705Z,8.44
2019-02-09T06:18:31.647Z,8.52
2019-02-09T06:19:31.684Z,8.52
2019-02-09T06:20:31.671Z,8.44
2019-02-09T06:21:31.608Z,8.37
2019-02-09T06:22:31.583Z,8.38
2019-02-09T06:23:31.582Z,8.28
2019-02-09T06:24:31.562Z,8.31
2019-02-09T06:25:31.619Z,8.31
2019-02-09T06:26:31.532Z,8.24
2019-02-09T06:27:31.517Z,8.31
2019-02-09T06:28:31.554Z,8.36
2019-02-09T06:29:31.489Z,8.27
2019-02-09T06:30:31.503Z,8.27
2019-02-09T06:31:31.538Z,8.30
2019-02-09T06:32:31.472Z,8.20
2019-02-09T06:33:31.458Z,8.15
2019-02-09T06:34:31.456Z,8.12
2019-02-09T06:35:31.449Z,8.06
2019-02-09T06:36:31.498Z,8.06
2019-02-09T06:37:31.458Z,8.01
2019-02-09T06:38:32.080Z,8.05
2019-02-09T06:39:31.391Z,8.06
2019-02-09T06:40:31.388Z,7.94
2019-02-09T06:41:31.442Z,8.03
2019-02-09T06:42:31.380Z,8.01
2019-02-09T06:43:31.371Z,7.93
2019-02-09T06:44:31.317Z,8.00
2019-02-09T06:45:31.303Z,8.00
2019-02-09T06:46:31.332Z,7.95
2019-02-09T06:47:31.326Z,7.93
2019-02-09T06:48:38.797Z,7.94
2019-02-09T06:49:31.322Z,7.93
2019-02-09T06:50:31.282Z,7.80
2019-02-09T06:51:31.302Z,7.85
2019-02-09T06:52:31.261Z,7.72
2019-02-09T06:53:31.268Z,7.69
2019-02-09T06:54:31.306Z,7.57
2019-02-09T06:55:31.236Z,7.51
2019-02-09T06:56:31.210Z,7.61
2019-02-09T06:57:31.231Z,7.51
2019-02-09T06:58:31.204Z,7.47
2019-02-09T06:59:31.268Z,7.47
2019-02-09T07:00:31.363Z,7.56
2019-02-09T07:01:31.158Z,7.48
2019-02-09T07:02:31.154Z,7.43
2019-02-09T07:03:31.137Z,7.40
2019-02-09T07:04:31.124Z,7.43
2019-02-09T07:05:31.170Z,7.45
2019-02-09T07:06:31.093Z,7.47
2019-02-09T07:07:31.178Z,7.50
2019-02-09T07:08:31.076Z,7.47
2019-02-09T07:09:31.109Z,7.40
2019-02-09T07:10:31.054Z,7.36
2019-02-09T07:11:31.075Z,7.21
2019-02-09T07:12:31.119Z,7.18
2019-02-09T07:13:31.021Z,7.06
2019-02-09T07:14:31.010Z,7.03
2019-02-09T07:15:31.027Z,6.95
2019-02-09T07:16:30.976Z,6.89
2019-02-09T07:17:31.041Z,6.78
2019-02-09T07:18:31.020Z,6.77
2019-02-09T07:19:30.957Z,6.75
2019-02-09T07:20:30.934Z,6.75
2019-02-09T07:21:31.057Z,6.70
2019-02-09T07:22:30.976Z,6.77
2019-02-09T07:23:30.961Z,6.74
2019-02-09T07:24:30.963Z,6.72
2019-02-09T07:25:30.894Z,6.74
2019-02-09T07:26:30.863Z,6.67
2019-02-09T07:27:30.869Z,6.74
2019-02-09T07:28:30.961Z,6.69
2019-02-09T07:29:30.818Z,6.72
2019-02-09T07:30:30.812Z,6.79
2019-02-09T07:31:30.793Z,6.85
2019-02-09T07:32:30.795Z,6.95
2019-02-09T07:33:30.772Z,6.84
2019-02-09T07:34:30.842Z,6.93
2019-02-09T07:35:30.782Z,6.89
2019-02-09T07:36:30.809Z,6.92
2019-02-09T07:37:30.885Z,6.93
2019-02-09T07:38:30.734Z,6.92
2019-02-09T07:39:30.706Z,6.88
2019-02-09T07:40:30.820Z,6.89
2019-02-09T07:41:31.715Z,6.88
2019-02-09T07:42:32.120Z,7.03
2019-02-09T07:43:30.694Z,6.92
2019-02-09T07:44:31.625Z,6.87
2019-02-09T07:45:30.659Z,6.79
2019-02-09T07:46:30.634Z,6.92
2019-02-09T07:47:30.645Z,6.87
2019-02-09T07:48:30.626Z,6.89
2019-02-09T07:49:30.601Z,6.84
2019-02-09T07:50:30.632Z,6.84
2019-02-09T07:51:30.610Z,6.82
2019-02-09T07:52:30.574Z,6.84
2019-02-09T07:53:30.727Z,6.84
2019-02-09T07:54:30.565Z,6.85
2019-02-09T07:55:30.553Z,6.81
2019-02-09T07:56:30.605Z,6.93
2019-02-09T07:57:30.554Z,6.89
2019-02-09T07:58:30.568Z,6.92
2019-02-09T07:59:30.500Z,6.93
2019-02-09T08:00:30.508Z,6.92
2019-02-09T08:01:31.119Z,6.93
2019-02-09T08:02:30.478Z,6.92
2019-02-09T08:03:30.460Z,6.92
2019-02-09T08:04:30.535Z,6.95
2019-02-09T08:05:30.441Z,6.97
2019-02-09T08:06:30.425Z,7.00
2019-02-09T08:07:30.411Z,7.03
2019-02-09T08:08:30.403Z,7.10
2019-02-09T08:09:30.393Z,7.03
2019-02-09T08:10:30.479Z,7.06
2019-02-09T08:11:30.424Z,7.05
2019-02-09T08:12:30.401Z,7.14
2019-02-09T08:13:30.384Z,7.18
2019-02-09T08:14:30.336Z,7.23
2019-02-09T08:15:30.331Z,7.18
2019-02-09T08:16:30.345Z,7.29
2019-02-09T08:17:30.474Z,7.32
2019-02-09T08:18:30.293Z,7.40
2019-02-09T08:19:30.316Z,7.35
2019-02-09T08:20:30.287Z,7.42
2019-02-09T08:21:30.260Z,7.39
2019-02-09T08:22:31.129Z,7.43
2019-02-09T08:23:30.273Z,7.60
2019-02-09T08:24:30.378Z,7.57
2019-02-09T08:25:30.235Z,7.72
2019-02-09T08:26:30.272Z,7.69
2019-02-09T08:27:30.190Z,7.76
2019-02-09T08:28:30.167Z,7.76
2019-02-09T08:29:30.266Z,7.80
2019-02-09T08:30:30.163Z,7.93
2019-02-09T08:31:30.163Z,7.98
2019-02-09T08:32:30.142Z,7.94
2019-02-09T08:33:30.178Z,7.94
2019-02-09T08:34:30.125Z,8.08
2019-02-09T08:35:30.164Z,8.09
2019-02-09T08:36:31.126Z,8.10
2019-02-09T08:37:30.119Z,8.09
2019-02-09T08:38:30.063Z,8.16
2019-02-09T08:39:30.063Z,8.15
2019-02-09T08:40:30.054Z,8.23
2019-02-09T08:41:30.041Z,8.27
2019-02-09T08:42:30.153Z,8.26
2019-02-09T08:43:30.062Z,8.34
2019-02-09T08:44:29.993Z,8.30
2019-02-09T08:45:30.022Z,8.27
2019-02-09T08:46:29.955Z,8.28
2019-02-09T08:47:30.000Z,8.41
2019-02-09T08:48:30.031Z,8.37
2019-02-09T08:49:29.969Z,8.55
2019-02-09T08:50:30.007Z,8.52
2019-02-09T08:51:30.014Z,8.61
2019-02-09T08:52:29.914Z,8.69
2019-02-09T08:53:29.902Z,8.67
2019-02-09T08:54:29.889Z,8.71
2019-02-09T08:55:29.884Z,8.69
2019-02-09T08:56:29.887Z,8.76
2019-02-09T08:57:30.032Z,8.71
2019-02-09T08:58:29.865Z,8.81
2019-02-09T08:59:29.838Z,8.79
2019-02-09T09:00:29.900Z,8.87
2019-02-09T09:01:29.868Z,8.85
2019-02-09T09:02:29.799Z,8.78
2019-02-09T09:03:29.791Z,8.88
2019-02-09T09:04:29.779Z,8.87
2019-02-09T09:05:29.775Z,8.94
2019-02-09T09:06:29.846Z,8.94
2019-02-09T09:07:30.760Z,8.92
2019-02-09T09:08:29.743Z,8.94
2019-02-09T09:09:29.736Z,8.89
2019-02-09T09:10:29.711Z,8.87
2019-02-09T09:11:29.705Z,9.02
2019-02-09T09:12:29.746Z,8.95
2019-02-09T09:13:29.756Z,9.02
2019-02-09T09:14:29.731Z,9.08
2019-02-09T09:15:29.663Z,9.03
2019-02-09T09:16:29.680Z,9.13
2019-02-09T09:17:29.639Z,9.22
2019-02-09T09:18:29.637Z,9.19
2019-02-09T09:19:29.618Z,9.23
2019-02-09T09:20:29.652Z,9.31
2019-02-09T09:21:29.588Z,9.31
2019-02-09T09:22:29.583Z,9.34
2019-02-09T09:23:29.622Z,9.37
2019-02-09T09:24:29.563Z,9.26
2019-02-09T09:25:29.549Z,9.32
2019-02-09T09:26:29.577Z,9.29
2019-02-09T09:27:29.517Z,9.32
2019-02-09T09:28:29.524Z,9.29
2019-02-09T09:29:29.570Z,9.37
2019-02-09T09:30:29.492Z,9.23
2019-02-09T09:31:29.514Z,9.22
2019-02-09T09:32:29.495Z,9.26
2019-02-09T09:33:29.457Z,9.29
2019-02-09T09:34:29.428Z,9.28
2019-02-09T09:35:29.432Z,9.32
2019-02-09T09:36:29.464Z,9.34
2019-02-09T09:37:29.423Z,9.46
2019-02-09T09:38:29.421Z,9.44
2019-02-09T09:39:29.392Z,9.40
2019-02-09T09:40:29.368Z,9.39
2019-02-09T09:41:29.400Z,9.40
2019-02-09T09:42:29.382Z,9.46
2019-02-09T09:43:29.384Z,9.47
2019-02-09T09:44:29.337Z,9.40
2019-02-09T09:45:29.339Z,9.50
2019-02-09T09:46:29.305Z,9.54
2019-02-09T09:47:29.300Z,9.55
2019-02-09T09:48:29.301Z,9.59
2019-02-09T09:49:29.340Z,9.44
2019-02-09T09:50:29.244Z,9.48
2019-02-09T09:51:29.244Z,9.44
2019-02-09T09:52:29.304Z,9.51
2019-02-09T09:53:29.380Z,9.43
2019-02-09T09:54:29.262Z,9.37
2019-02-09T09:55:29.218Z,9.44
2019-02-09T09:56:29.328Z,9.43
2019-02-09T09:57:29.184Z,9.39
2019-02-09T09:58:29.173Z,9.47
2019-02-09T09:59:29.174Z,9.54
2019-02-09T10:00:29.266Z,9.50
2019-02-09T10:01:29.141Z,9.64
2019-02-09T10:02:36.311Z,9.50
2019-02-09T10:03:30.128Z,9.48
2019-02-09T10:04:29.112Z,9.51
2019-02-09T10:05:29.127Z,9.66
2019-02-09T10:06:29.120Z,9.62
2019-02-09T10:07:29.081Z,9.65
2019-02-09T10:08:29.092Z,9.66
2019-02-09T10:09:29.043Z,9.65
2019-02-09T10:10:29.074Z,9.72
2019-02-09T10:11:29.051Z,9.76
2019-02-09T10:12:29.094Z,9.68
2019-02-09T10:13:29.011Z,9.69
2019-02-09T10:14:29.007Z,9.74
2019-02-09T10:15:29.145Z,9.86
2019-02-09T10:16:28.975Z,9.92
2019-02-09T10:17:29.027Z,9.97
2019-02-09T10:18:28.942Z,10.09
2019-02-09T10:19:28.969Z,9.99
2019-02-09T10:20:28.996Z,9.99
2019-02-09T10:21:28.919Z,10.01
2019-02-09T10:22:29.044Z,9.95
2019-02-09T10:23:29.082Z,9.97
2019-02-09T10:24:29.003Z,9.92
2019-02-09T10:25:28.853Z,9.91
2019-02-09T10:26:28.934Z,9.77
2019-02-09T10:27:28.835Z,9.82
2019-02-09T10:28:28.955Z,9.74
2019-02-09T10:29:28.814Z,9.65
2019-02-09T10:30:28.806Z,9.62
2019-02-09T10:31:28.842Z,9.56
2019-02-09T10:32:28.785Z,9.48
2019-02-09T10:33:28.950Z,9.46
2019-02-09T10:34:28.754Z,9.40
2019-02-09T10:35:28.815Z,9.43
2019-02-09T10:36:28.949Z,9.46
2019-02-09T10:37:28.725Z,9.36
2019-02-09T10:38:28.720Z,9.36
2019-02-09T10:39:28.705Z,9.32
2019-02-09T10:40:28.691Z,9.16
2019-02-09T10:41:29.452Z,9.04
2019-02-09T10:42:28.667Z,9.06
2019-02-09T10:43:28.688Z,8.95
2019-02-09T10:44:28.820Z,8.97
2019-02-09T10:45:28.648Z,9.00
2019-02-09T10:46:28.635Z,8.97
2019-02-09T10:47:28.758Z,9.08
2019-02-09T10:48:28.629Z,9.22
2019-02-09T10:49:28.588Z,9.11
2019-02-09T10:50:28.719Z,9.18
2019-02-09T10:51:28.581Z,9.18
2019-02-09T10:52:28.680Z,9.23
2019-02-09T10:53:28.702Z,9.28
2019-02-09T10:54:28.533Z,9.25
2019-02-09T10:55:29.153Z,9.25
2019-02-09T10:56:28.558Z,9.29
2019-02-09T10:57:28.502Z,9.32
2019-02-09T10:58:28.575Z,9.43
2019-02-09T10:59:28.476Z,9.44
2019-02-09T11:00:28.473Z,9.54
2019-02-09T11:01:28.470Z,9.54
2019-02-09T11:02:28.555Z,9.51
2019-02-09T11:03:28.495Z,9.66
2019-02-09T11:04:28.443Z,9.59
2019-02-09T11:05:28.415Z,9.64
2019-02-09T11:06:28.444Z,9.72
2019-02-09T11:07:28.396Z,9.73
2019-02-09T11:08:28.393Z,9.72
2019-02-09T11:09:28.399Z,9.86
2019-02-09T11:10:28.354Z,9.86
2019-02-09T11:11:28.355Z,9.86
2019-02-09T11:12:28.335Z,9.82
2019-02-09T11:13:28.330Z,9.84
2019-02-09T11:14:28.324Z,9.82
2019-02-09T11:15:28.326Z,9.84
2019-02-09T11:16:28.327Z,9.80
2019-02-09T11:17:28.290Z,9.83
2019-02-09T11:18:28.265Z,9.79
2019-02-09T11:19:29.155Z,9.72
2019-02-09T11:20:28.282Z,9.76
2019-02-09T11:21:28.261Z,9.74
2019-02-09T11:22:28.287Z,9.79
2019-02-09T11:23:28.210Z,9.69
2019-02-09T11:24:28.198Z,9.69
2019-02-09T11:25:28.212Z,9.77
2019-02-09T11:26:28.190Z,9.83
2019-02-09T11:27:28.304Z,9.86
2019-02-09T11:28:28.166Z,9.86
2019-02-09T11:29:28.140Z,9.94
2019-02-09T11:30:28.143Z,10.01
2019-02-09T11:31:28.152Z,9.99
2019-02-09T11:32:28.110Z,9.99
2019-02-09T11:33:28.139Z,10.10
2019-02-09T11:34:28.086Z,10.16
2019-02-09T11:35:28.083Z,10.15
2019-02-09T11:36:28.071Z,10.15
2019-02-09T11:37:28.080Z,10.19
2019-02-09T11:38:28.102Z,10.12
2019-02-09T11:39:28.030Z,10.15
2019-02-09T11:40:28.020Z,10.25
2019-02-09T11:41:28.045Z,10.30
2019-02-09T11:42:35.383Z,10.28
2019-02-09T11:43:27.989Z,10.31
2019-02-09T11:44:27.988Z,10.31
2019-02-09T11:45:27.998Z,10.35
2019-02-09T11:46:27.963Z,10.20
2019-02-09T11:47:27.962Z,10.25
2019-02-09T11:48:27.977Z,10.25
2019-02-09T11:49:34.995Z,10.30
2019-02-09T11:50:27.909Z,10.38
2019-02-09T11:51:28.072Z,10.38
2019-02-09T11:52:27.892Z,10.41
2019-02-09T11:53:27.884Z,10.40
2019-02-09T11:54:27.864Z,10.42
2019-02-09T11:55:27.876Z,10.40
2019-02-09T11:56:27.894Z,10.38
2019-02-09T11:57:27.836Z,10.41
2019-02-09T11:58:27.824Z,10.49
2019-02-09T11:59:27.817Z,10.54
2019-02-09T12:00:27.799Z,10.48
2019-02-09T12:01:27.805Z,10.35
2019-02-09T12:02:27.894Z,10.42
2019-02-09T12:03:27.790Z,10.60
2019-02-09T12:04:27.770Z,10.46
2019-02-09T12:05:27.747Z,10.48
2019-02-09T12:06:27.737Z,10.46
2019-02-09T12:07:27.724Z,10.60
2019-02-09T12:08:27.731Z,10.61
2019-02-09T12:09:27.704Z,10.64
2019-02-09T12:10:27.688Z,10.57
2019-02-09T12:11:27.684Z,10.48
2019-02-09T12:12:27.663Z,10.46
2019-02-09T12:13:27.688Z,10.56
2019-02-09T12:14:27.639Z,10.48
2019-02-09T12:15:27.627Z,10.51
2019-02-09T12:16:27.633Z,10.46
2019-02-09T12:17:27.609Z,10.46
2019-02-09T12:18:27.740Z,10.48
2019-02-09T12:19:27.610Z,10.40
2019-02-09T12:20:27.575Z,10.46
2019-02-09T12:21:27.592Z,10.53
2019-02-09T12:22:27.550Z,10.46
2019-02-09T12:23:27.544Z,10.53
2019-02-09T12:24:27.553Z,10.54
2019-02-09T12:25:27.515Z,10.46
2019-02-09T12:26:27.507Z,10.56
2019-02-09T12:27:27.494Z,10.46
2019-02-09T12:28:27.499Z,10.31
2019-02-09T12:29:27.471Z,9.98
2019-02-09T12:30:27.494Z,9.65
2019-02-09T12:31:27.462Z,9.48
2019-02-09T12:32:27.449Z,9.40
2019-02-09T12:33:27.455Z,9.36
2019-02-09T12:34:27.627Z,9.21
2019-02-09T12:35:27.453Z,9.16
2019-02-09T12:36:27.401Z,9.11
2019-02-09T12:37:27.439Z,9.11
2019-02-09T12:38:27.376Z,9.22
2019-02-09T12:39:27.373Z,9.25
2019-02-09T12:40:27.373Z,9.29
2019-02-09T12:41:27.358Z,9.31
2019-02-09T12:42:27.339Z,9.23
2019-02-09T12:43:27.324Z,9.26
2019-02-09T12:44:27.340Z,9.25
2019-02-09T12:45:27.321Z,9.28
2019-02-09T12:46:27.309Z,9.31
2019-02-09T12:47:27.274Z,9.34
2019-02-09T12:48:27.264Z,9.39
2019-02-09T12:49:27.257Z,9.46
2019-02-09T12:50:27.249Z,9.37
2019-02-09T12:51:27.257Z,9.47
2019-02-09T12:52:27.212Z,9.48
2019-02-09T12:53:27.229Z,9.50
2019-02-09T12:54:27.207Z,9.39
2019-02-09T12:55:27.259Z,9.47
2019-02-09T12:56:27.172Z,9.47
2019-02-09T12:57:27.159Z,9.48
2019-02-09T12:58:27.189Z,9.51
2019-02-09T12:59:27.137Z,9.48
2019-02-09T13:00:27.151Z,9.47
2019-02-09T13:01:27.123Z,9.58
2019-02-09T13:02:27.125Z,9.48
2019-02-09T13:03:31.279Z,9.51
2019-02-09T13:04:27.109Z,9.51
2019-02-09T13:05:27.074Z,9.61
2019-02-09T13:06:27.066Z,9.66
2019-02-09T13:07:27.063Z,9.62
2019-02-09T13:08:27.039Z,9.73
2019-02-09T13:09:27.029Z,9.64
2019-02-09T13:10:27.045Z,9.69
2019-02-09T13:11:27.018Z,9.79
2019-02-09T13:12:27.004Z,9.86
2019-02-09T13:13:26.983Z,9.80
2019-02-09T13:14:27.042Z,9.87
2019-02-09T13:15:26.997Z,9.92
2019-02-09T13:16:26.980Z,9.95